METAR Data
IDs: Format: Raw Decoded Include TAF

Data at: 2220 UTC 23 Apr 2019

KSVC 232155Z AUTO 14020G26KT 10SM SCT100 19/01 A2996 RMK AO2 LTG DSNT N T01940008
KSVC 232135Z AUTO 14003G16KT 10SM SCT085 20/M02 A2997 RMK AO2 LTG DSNT N T02031024
KSVC 232115Z AUTO 14008G19KT 100V170 10SM VCTS BKN085 21/M02 A2997 RMK AO2 LTG DSNT N AND NE T02131021
KSVC 232055Z AUTO 16014G19KT 10SM VCTS SCT085 21/M01 A2998 RMK AO2 LTG DSNT N AND NW T02091013
KSVC 232035Z AUTO 14013G20KT 10SM VCTS SCT085 21/00 A2999 RMK AO2 LTG DSNT N AND NE T02091004
KSVC 232015Z AUTO 15010KT 10SM SCT070 BKN085 21/00 A3000 RMK AO2 LTG DSNT E T02091004
KSVC 231955Z AUTO 14014G18KT 10SM TS BKN070 OVC085 21/01 A3000 RMK AO2 LTG DSNT NW THRU NE T02050005
KSVC 231935Z AUTO 11010G15KT 10SM BKN070 BKN080 19/01 A3001 RMK AO2 T01910006
KSVC 231915Z AUTO 10011G15KT 10SM SCT070 BKN090 BKN110 19/01 A3002 RMK AO2 LTG DSNT NW T01890014
KSVC 231855Z AUTO 20003G09KT 10SM SCT070 SCT100 17/02 A3002 RMK AO2 T01720017
KSVC 231835Z AUTO 15008KT 10SM SCT055 SCT070 SCT090 18/02 A3004 RMK AO2 LTG DSNT N AND NW T01770023
KSVC 231815Z AUTO 13004KT 10SM SCT055 SCT080 BKN090 17/02 A3005 RMK AO2 LTG DSNT N T01700024
KSVC 231755Z AUTO 18005KT 10SM SCT055 BKN080 17/03 A3006 RMK AO2 T01700026 10179 20031
KSVC 231735Z AUTO 09007KT 10SM SCT055 17/03 A3006 RMK AO2 T01740029
KSVC 231715Z AUTO 17007KT 10SM CLR 17/03 A3007 RMK AO2 T01670032
KSVC 231655Z AUTO 17009KT 10SM CLR 16/03 A3007 RMK AO2 T01610032
KSVC 231635Z AUTO 15006KT 10SM CLR 16/03 A3007 RMK AO2 T01600029
KSVC 231615Z AUTO 13006KT 10SM CLR 15/03 A3007 RMK AO2 T01510030
KSVC 231555Z AUTO 12006KT 10SM CLR 15/03 A3007 RMK AO2 T01470029
KSVC 231535Z AUTO 12004KT 10SM CLR 14/04 A3007 RMK AO2 T01430037
KSVC 231515Z AUTO 12006KT 10SM CLR 14/04 A3007 RMK AO2 T01360038
KSVC 231455Z AUTO 00000KT 10SM CLR 12/03 A3007 RMK AO2 T01240033
KSVC 231435Z AUTO 31003KT 10SM CLR 11/04 A3008 RMK AO2 T01120036
KSVC 231415Z AUTO 29004KT 10SM CLR 10/04 A3008 RMK AO2 T01010035
KSVC 231355Z AUTO 31005KT 10SM CLR 09/04 A3008 RMK AO2 T00850039
KSVC 231335Z AUTO 31004KT 10SM SCT100 06/04 A3008 RMK AO2 T00640038
KSVC 231315Z AUTO 28003KT 10SM BKN100 04/02 A3007 RMK AO2 T00380020
KSVC 231255Z AUTO 00000KT 10SM OVC100 04/02 A3006 RMK AO2 T00370022
KSVC 231235Z AUTO 00000KT 10SM OVC100 04/03 A3006 RMK AO2 T00400025
KSVC 231215Z AUTO 00000KT 10SM OVC100 05/03 A3005 RMK AO2 T00500030
KSVC 231155Z AUTO 09005KT 10SM OVC100 06/03 A3005 RMK AO2 70009 T00570030 10091 20034
KSVC 231135Z AUTO 35003KT 10SM OVC100 05/03 A3004 RMK AO2 LTG DSNT S T00460027
KSVC 231115Z AUTO 36005KT 10SM OVC100 05/03 A3004 RMK AO2 T00450026
KSVC 231055Z AUTO 34006KT 10SM OVC100 05/03 A3004 RMK AO2 T00450027
KSVC 231035Z AUTO 28005KT 10SM BKN100 BKN110 05/03 A3004 RMK AO2 T00520028
KSVC 231015Z AUTO 35005KT 10SM SCT100 04/02 A3003 RMK AO2 T00400023
KSVC 230955Z AUTO 33006KT 10SM CLR 03/02 A3002 RMK AO2 T00340021
KSVC 230935Z AUTO 34005KT 10SM CLR 04/02 A3003 RMK AO2 T00440024
KSVC 230915Z AUTO 32005KT 10SM CLR 05/03 A3003 RMK AO2 T00470028
KSVC 230855Z AUTO 34006KT 10SM CLR 05/03 A3003 RMK AO2 T00520032
KSVC 230835Z AUTO 35007KT 10SM CLR 06/04 A3003 RMK AO2 T00600035
KSVC 230815Z AUTO 34009KT 10SM CLR 05/04 A3004 RMK AO2 T00500035
KSVC 230755Z AUTO 30008KT 10SM SCT100 06/04 A3006 RMK AO2 LTG DSNT E T00590038
KSVC 230735Z AUTO 29005KT 10SM CLR 05/03 A3005 RMK AO2 T00500033
KSVC 230715Z AUTO 02003KT 10SM CLR 06/04 A3006 RMK AO2 T00550037
KSVC 230655Z AUTO 36006KT 10SM CLR 06/04 A3006 RMK AO2 LTG DSNT E T00610040 402020061
KSVC 230635Z AUTO 05006KT 10SM CLR 08/05 A3006 RMK AO2 LTG DSNT E T00760048
KSVC 230615Z AUTO 03006KT 10SM BKN100 09/05 A3007 RMK AO2 LTG DSNT E T00850048
KSVC 230555Z AUTO 02005KT 10SM BKN100 BKN120 09/05 A3008 RMK AO2 60009 T00910051 10170 20089
KSVC 230535Z AUTO 04009KT 10SM SCT055 SCT065 BKN120 10/05 A3007 RMK AO2 T00960050
KSVC 230455Z AUTO 04004KT 10SM BKN065 OVC075 10/06 A3010 RMK AO2 T00970061
KSVC 230435Z AUTO 01007KT 10SM SCT065 BKN075 OVC085 10/06 A3010 RMK AO2 LTG DSNT SW T00980057
KSVC 230415Z AUTO 36009KT 10SM SCT090 BKN110 09/06 A3009 RMK AO2 T00920056
KSVC 230355Z AUTO 31007KT 10SM SCT100 SCT120 10/06 A3009 RMK AO2 T00950058
KSVC 230335Z AUTO 02010KT 10SM SCT080 SCT100 SCT120 10/06 A3007 RMK AO2 LTG DSNT S T00960056
KSVC 230315Z AUTO 01013KT 10SM -RA SCT055 BKN080 BKN095 10/06 A3007 RMK AO2 LTG DSNT SE AND S T00950062
KSVC 230255Z AUTO 31011KT 10SM SCT025 SCT046 OVC085 10/06 A3008 RMK AO2 LTG DSNT SE AND SW P0005 60009 T00970062
KSVC 230235Z AUTO 35011G23KT 7SM RA SCT015 BKN044 OVC070 11/05 A3006 RMK AO2 LTG DSNT NE AND SE P0004 T01100046
KSVC 230215Z AUTO 31012KT 10SM -VCTSDZ SCT060 OVC070 12/07 A3004 RMK AO2 LTG DSNT S THRU W T01150072
KSVC 230155Z AUTO 04004KT 10SM -RA SCT050 OVC070 12/05 A3002 RMK AO2 LTG DSNT S AND W P0004 T01240048
KSVC 230135Z AUTO 12011G18KT 7SM +RA SCT050 BKN090 OVC100 14/04 A3002 RMK AO2 LTG DSNT S P0002 T01360044
KSVC 230115Z AUTO 05014G21KT 10SM OVC100 16/00 A2998 RMK AO2 LTG DSNT S AND NW T01581002
KSVC 230055Z AUTO 05012KT 10SM BKN100 16/M01 A2998 RMK AO2 LTG DSNT S T01641012
KSVC 230035Z AUTO 01008KT 10SM VCTS BKN100 17/M01 A2999 RMK AO2 LTG DSNT S AND NW T01671006
KSVC 230015Z AUTO 36015G19KT 10SM SCT080 16/00 A3000 RMK AO2 LTG DSNT S AND W T01610001
KSVC 222355Z AUTO 04007KT 10SM VCTS CLR 16/01 A3001 RMK AO2 LTG DSNT W T01590010 10202 20138
KSVC 222335Z AUTO 05008KT 10SM CLR 16/01 A3000 RMK AO2 LTG DSNT W THRU N T01600013
KSVC 222315Z AUTO 05009G15KT 10SM CLR 18/02 A3000 RMK AO2 LTG DSNT W T01780024
KSVC 222255Z AUTO 05010KT 10SM CLR 17/02 A3001 RMK AO2 T01720019
KSVC 222235Z AUTO 08011G15KT 10SM CLR 17/02 A3002 RMK AO2 T01710024
KSVC 222215Z AUTO 10009KT 10SM SCT035 SCT046 16/03 A3004 RMK AO2 LTG DSNT E T01550032
KSVC 222155Z AUTO 10009KT 10SM SCT034 SCT048 BKN060 14/04 A3004 RMK AO2 T01430043
KSVC 222135Z AUTO 14014G18KT 10SM -RA SCT050 BKN070 OVC080 16/01 A3007 RMK AO2 T01580010
KSVC 222115Z AUTO 18010KT 10SM TS SCT060 BKN070 OVC080 16/01 A3006 RMK AO2 LTG DSNT NE T01580011
KSVC 222055Z AUTO 18019G23KT 10SM OVC090 17/M01 A3004 RMK AO2 LTG DSNT S T01721012
KSVC 222035Z AUTO 20007KT 10SM BKN100 BKN120 19/M02 A3003 RMK AO2 T01911016
KSVC 222015Z AUTO 21014G19KT 10SM SCT110 20/M02 A3003 RMK AO2 T01951025
KSVC 221955Z AUTO 18012KT 10SM CLR 20/M03 A3003 RMK AO2 T01991029
KSVC 221935Z AUTO 17009KT 140V210 10SM CLR 20/M03 A3003 RMK AO2 T01961031
KSVC 221915Z AUTO 18010G15KT 10SM CLR 20/M03 A3003 RMK AO2 T01971027
KSVC 221855Z AUTO 18005KT 10SM CLR 20/M03 A3004 RMK AO2 T01971028
KSVC 221835Z AUTO 18011G22KT 10SM CLR 20/M02 A3005 RMK AO2 T01991016
KSVC 221815Z AUTO 18008KT 10SM CLR 19/00 A3006 RMK AO2 T01921005
KSVC 221755Z AUTO 20008KT 10SM CLR 19/M01 A3006 RMK AO2 T01891008 10194 20065
KSVC 221735Z AUTO 20006KT 10SM CLR 19/M01 A3007 RMK AO2 T01861007
KSVC 221715Z AUTO 18011KT 10SM CLR 19/00 A3007 RMK AO2 T01881004
KSVC 221655Z AUTO 21007KT 10SM CLR 18/M01 A3007 RMK AO2 T01811012
KSVC 221635Z AUTO 19006G14KT 10SM CLR 18/M01 A3008 RMK AO2 T01791015
KSVC 221615Z AUTO 21008KT 10SM CLR 18/M01 A3008 RMK AO2 T01811006
KSVC 221555Z AUTO 14006KT 10SM CLR 17/M03 A3008 RMK AO2 T01671031
KSVC 221535Z AUTO 15006KT 10SM CLR 17/M03 A3008 RMK AO2 T01691026
KSVC 221515Z AUTO 17006KT 10SM CLR 16/M03 A3008 RMK AO2 T01621027
KSVC 221455Z AUTO 14003KT 10SM SCT120 15/M03 A3008 RMK AO2 T01511027
KSVC 221435Z AUTO 14004KT 10SM SCT120 14/M02 A3008 RMK AO2 T01431023
KSVC 221415Z AUTO 00000KT 10SM SCT120 12/M02 A3008 RMK AO2 T01231021
KSVC 221355Z AUTO 34003KT 10SM CLR 11/M02 A3007 RMK AO2 T01061025
KSVC 221335Z AUTO 32003KT 10SM CLR 10/M03 A3006 RMK AO2 T00951030
KSVC 221315Z AUTO 35005KT 10SM CLR 09/M03 A3005 RMK AO2 T00901033
KSVC 221255Z AUTO 34005KT 10SM CLR 09/M03 A3004 RMK AO2 T00851035
KSVC 221235Z AUTO 35007KT 10SM CLR 07/M04 A3004 RMK AO2 T00711039
KSVC 221215Z AUTO 35005KT 10SM CLR 07/M04 A3004 RMK AO2 T00731041
KSVC 221155Z AUTO 34006KT 10SM CLR 07/M04 A3004 RMK AO2 T00721042 10131 20067
KSVC 221135Z AUTO 32005KT 10SM CLR 08/M04 A3004 RMK AO2 T00791045
KSVC 221115Z AUTO 33007KT 10SM CLR 08/M04 A3004 RMK AO2 T00821043
KSVC 221055Z AUTO 33006KT 10SM CLR 09/M05 A3004 RMK AO2 T00861046
KSVC 221035Z AUTO 32008KT 10SM CLR 08/M05 A3004 RMK AO2 T00811047